Time;durP1;ratioP1;P1;durP2;ratioP2;P2;SDS_P1;SDS_P2;PMS_P1;PMS_P2;Temp;Humidity;BMP_temperature;BMP_pressure;BME280_temperature;BME280_humidity;BME280_pressure;Samples;Min_cycle;Max_cycle;Signal;HPM_P1;HPM_P2
2022/11/15 00:00:46;;;;;;;20.80;17.67;;;7.40;99.90;;;;;;5060611;28;20500;-58
2022/11/15 00:03:14;;;;;;;21.10;17.15;;;7.40;99.90;;;;;;5059270;28;20041;-57
2022/11/15 00:05:40;;;;;;;22.20;18.92;;;7.40;99.90;;;;;;5061729;28;20489;-54
2022/11/15 00:08:05;;;;;;;19.95;17.52;;;7.50;99.90;;;;;;5049516;28;20055;-58
2022/11/15 00:10:31;;;;;;;24.05;18.30;;;7.60;99.90;;;;;;5063181;28;20124;-56
2022/11/15 00:12:57;;;;;;;22.13;17.90;;;7.60;99.90;;;;;;5061519;28;20098;-56
2022/11/15 00:15:22;;;;;;;22.50;17.60;;;7.60;99.90;;;;;;5062164;28;20040;-57
2022/11/15 00:17:51;;;;;;;23.48;18.38;;;7.60;99.90;;;;;;5057684;28;20048;-56
2022/11/15 00:20:17;;;;;;;22.88;17.67;;;7.70;99.90;;;;;;5069708;28;20044;-58
2022/11/15 00:22:43;;;;;;;24.05;16.90;;;7.70;99.90;;;;;;5071427;28;20070;-60
2022/11/15 00:25:08;;;;;;;23.67;17.77;;;7.70;99.90;;;;;;5064374;28;20033;-59
2022/11/15 00:27:34;;;;;;;22.40;17.67;;;7.70;99.90;;;;;;5051951;28;21357;-60
2022/11/15 00:30:00;;;;;;;21.40;17.63;;;7.70;99.90;;;;;;5054466;28;20446;-60
2022/11/15 00:32:26;;;;;;;24.73;16.83;;;7.80;99.90;;;;;;5054660;28;20130;-59
2022/11/15 00:34:51;;;;;;;22.00;17.23;;;7.80;99.90;;;;;;5058053;28;21045;-59
2022/11/15 00:37:17;;;;;;;21.85;17.15;;;7.80;99.90;;;;;;5071674;28;20044;-60
2022/11/15 00:39:43;;;;;;;21.38;18.02;;;7.80;99.90;;;;;;5064464;28;20379;-60
2022/11/15 00:42:08;;;;;;;22.42;17.23;;;7.70;99.90;;;;;;5063019;28;20071;-57
2022/11/15 00:44:34;;;;;;;21.77;17.58;;;7.80;99.90;;;;;;5042247;28;20591;-59
2022/11/15 00:46:59;;;;;;;21.45;17.05;;;7.80;99.90;;;;;;5060118;28;20039;-59
2022/11/15 00:49:25;;;;;;;23.77;16.88;;;7.80;99.90;;;;;;5055361;28;20423;-59
2022/11/15 00:51:50;;;;;;;21.75;17.55;;;7.80;99.90;;;;;;5041023;28;20055;-59
2022/11/15 00:54:16;;;;;;;24.92;17.52;;;7.80;99.90;;;;;;5062086;28;20048;-57
2022/11/15 00:56:42;;;;;;;23.85;17.42;;;7.80;99.90;;;;;;5056617;28;20075;-60
2022/11/15 00:59:07;;;;;;;22.30;17.77;;;7.80;99.90;;;;;;5055880;28;20040;-58
2022/11/15 01:01:33;;;;;;;20.88;16.92;;;7.80;99.90;;;;;;5054091;28;20044;-57
2022/11/15 01:03:58;;;;;;;22.02;17.08;;;7.90;99.90;;;;;;5055823;28;20036;-54
2022/11/15 01:06:24;;;;;;;22.38;17.92;;;7.90;99.90;;;;;;5056698;28;20037;-58
2022/11/15 01:08:49;;;;;;;23.95;17.35;;;7.90;99.90;;;;;;5056375;28;20035;-57
2022/11/15 01:11:15;;;;;;;23.10;17.90;;;7.90;99.90;;;;;;5057337;28;20043;-54
2022/11/15 01:13:41;;;;;;;21.15;17.17;;;7.90;99.90;;;;;;5060080;28;20359;-53
2022/11/15 01:16:18;;;;;;;24.27;17.27;;;7.90;99.90;;;;;;5062587;28;20135;-57
2022/11/15 01:18:45;;;;;;;22.70;17.38;;;8.00;99.90;;;;;;5058554;28;20099;-55
2022/11/15 01:21:16;;;;;;;23.50;18.25;;;8.00;99.90;;;;;;5060457;28;20174;-57
2022/11/15 01:23:42;;;;;;;20.85;17.35;;;7.90;99.90;;;;;;5056506;28;20049;-59
2022/11/15 01:26:10;;;;;;;21.15;17.20;;;8.00;99.90;;;;;;5054730;28;20043;-58
2022/11/15 01:28:38;;;;;;;26.70;18.55;;;8.00;99.90;;;;;;5056092;28;20051;-60
2022/11/15 01:31:05;;;;;;;26.27;18.42;;;8.00;99.90;;;;;;5058869;28;20083;-59
2022/11/15 01:33:35;;;;;;;26.17;18.15;;;8.00;99.90;;;;;;5034807;28;20412;-58
2022/11/15 01:36:11;;;;;;;25.25;17.67;;;8.00;99.90;;;;;;5059776;28;20036;-60
2022/11/15 01:38:36;;;;;;;25.15;17.65;;;8.10;99.90;;;;;;5060424;28;20128;-59
2022/11/15 01:41:03;;;;;;;26.67;18.15;;;8.10;99.90;;;;;;5061630;28;20119;-60
2022/11/15 01:43:30;;;;;;;27.95;18.60;;;8.10;99.90;;;;;;5059340;28;20123;-59
2022/11/15 01:46:23;;;;;;;28.30;18.80;;;8.20;99.90;;;;;;5027910;28;20051;-59
2022/11/15 01:48:52;;;;;;;29.25;19.40;;;8.20;99.90;;;;;;5051175;28;20103;-58
2022/11/15 01:51:21;;;;;;;29.27;19.55;;;8.20;99.90;;;;;;5064053;28;20409;-59
2022/11/15 01:53:50;;;;;;;34.47;20.38;;;8.20;99.90;;;;;;5060163;28;20106;-60
2022/11/15 01:56:20;;;;;;;31.63;20.73;;;8.20;99.90;;;;;;5061419;28;20351;-59
2022/11/15 01:58:46;;;;;;;34.22;21.55;;;8.30;99.90;;;;;;5060601;28;20473;-60
2022/11/15 02:01:15;;;;;;;35.83;20.27;;;8.30;99.90;;;;;;5045163;28;20041;-61
2022/11/15 02:04:01;;;;;;;37.08;21.30;;;8.30;99.90;;;;;;5059648;28;20398;-60
2022/11/15 02:06:27;;;;;;;32.95;20.67;;;8.30;99.90;;;;;;5060604;28;20072;-58
2022/11/15 02:08:54;;;;;;;34.75;22.08;;;8.30;99.90;;;;;;5057139;28;20528;-60
2022/11/15 02:11:19;;;;;;;33.95;21.20;;;8.40;99.90;;;;;;5055992;28;20045;-61
2022/11/15 02:13:45;;;;;;;35.40;22.17;;;8.40;99.90;;;;;;5041306;28;20118;-60
2022/11/15 02:16:36;;;;;;;32.40;21.60;;;8.40;99.90;;;;;;5057167;28;20083;-60
2022/11/15 02:19:26;;;;;;;36.25;22.30;;;8.40;99.90;;;;;;5062276;28;21894;-60
2022/11/15 02:22:07;;;;;;;32.70;21.20;;;8.40;99.90;;;;;;5048282;28;20058;-60
2022/11/15 02:24:32;;;;;;;33.63;21.02;;;8.40;99.90;;;;;;5053329;28;20494;-59
2022/11/15 02:27:26;;;;;;;36.63;22.50;;;8.40;99.90;;;;;;5063583;28;20047;-58
2022/11/15 02:30:12;;;;;;;37.28;22.67;;;8.50;99.90;;;;;;5041188;28;20052;-58
2022/11/15 02:33:24;;;;;;;32.25;22.48;;;8.50;99.90;;;;;;5062759;28;20512;-59
2022/11/15 02:36:08;;;;;;;33.05;22.48;;;8.50;99.90;;;;;;4976545;28;20784;-57
2022/11/15 02:38:45;;;;;;;37.85;23.45;;;8.60;99.90;;;;;;4983080;28;20555;-60
2022/11/15 02:41:28;;;;;;;35.00;23.73;;;8.60;99.90;;;;;;4959775;28;20138;-59
2022/11/15 02:44:00;;;;;;;34.75;23.38;;;8.60;99.90;;;;;;4966972;28;20046;-59
2022/11/15 02:49:31;;;;;;;35.20;24.65;;;8.70;99.90;;;;;;4966583;28;20400;-58
2022/11/15 02:51:57;;;;;;;35.85;23.00;;;8.70;99.90;;;;;;4983197;28;20184;-58
2022/11/15 02:54:26;;;;;;;34.72;23.73;;;8.70;99.90;;;;;;4979472;28;20049;-59
2022/11/15 02:56:58;;;;;;;36.30;25.33;;;8.70;99.90;;;;;;4981626;28;21141;-58
2022/11/15 02:59:39;;;;;;;36.38;25.83;;;8.70;99.90;;;;;;4983753;28;20050;-59
2022/11/15 03:02:24;;;;;;;39.33;27.45;;;8.70;99.90;;;;;;4981766;28;20056;-59
2022/11/15 03:05:10;;;;;;;39.95;28.70;;;8.80;99.90;;;;;;4962463;28;20407;-59
2022/11/15 03:07:45;;;;;;;40.00;25.90;;;8.80;99.90;;;;;;4982101;28;20172;-60
2022/11/15 03:10:17;;;;;;;38.78;25.48;;;8.80;99.90;;;;;;4950564;28;20077;-59
2022/11/15 03:13:02;;;;;;;38.58;25.75;;;8.80;99.90;;;;;;5026779;28;20079;-59
2022/11/15 03:15:31;;;;;;;41.15;26.92;;;8.90;99.90;;;;;;5057506;28;20840;-57
2022/11/15 03:18:05;;;;;;;40.63;26.80;;;8.90;99.90;;;;;;5058278;28;20533;-58
2022/11/15 03:20:32;;;;;;;44.00;27.75;;;8.90;99.90;;;;;;5058618;28;20036;-58
2022/11/15 03:23:04;;;;;;;41.77;28.63;;;9.00;99.90;;;;;;5059274;28;20351;-58
2022/11/15 03:25:32;;;;;;;40.97;27.42;;;9.00;99.90;;;;;;5057908;28;20508;-57
2022/11/15 03:28:01;;;;;;;47.95;29.42;;;9.00;99.90;;;;;;5058733;28;20048;-57
2022/11/15 03:30:28;;;;;;;42.65;28.13;;;9.00;99.90;;;;;;5039431;28;20582;-58
2022/11/15 03:32:58;;;;;;;45.08;29.02;;;9.10;99.90;;;;;;5061508;28;20406;-58
2022/11/15 03:35:27;;;;;;;45.00;30.02;;;9.10;99.90;;;;;;5060102;28;20032;-59
2022/11/15 03:38:03;;;;;;;41.08;28.98;;;9.10;99.90;;;;;;5058945;28;20064;-59
2022/11/15 03:40:39;;;;;;;46.00;30.13;;;9.20;99.90;;;;;;5057368;28;20076;-58
2022/11/15 03:43:27;;;;;;;52.90;30.60;;;9.20;99.90;;;;;;5056303;28;20048;-59
2022/11/15 03:46:39;;;;;;;48.97;31.45;;;9.20;99.90;;;;;;5039159;28;20135;-60
2022/11/15 03:49:10;;;;;;;50.95;32.20;;;9.20;99.90;;;;;;5059061;28;20098;-59
2022/11/15 03:51:36;;;;;;;51.08;31.98;;;9.20;99.90;;;;;;5058677;28;20489;-59
2022/11/15 03:54:04;;;;;;;45.85;31.58;;;9.30;99.90;;;;;;5055990;28;20040;-58
2022/11/15 03:56:30;;;;;;;;;;;9.30;99.90;;;;;;5053244;28;20058;-58
2022/11/15 03:58:55;;;;;;;46.17;31.63;;;9.30;99.90;;;;;;5035321;28;20471;-61
2022/11/15 04:01:21;;;;;;;47.25;31.48;;;9.30;99.90;;;;;;5052734;28;20044;-58
2022/11/15 04:03:46;;;;;;;46.80;31.90;;;9.40;99.90;;;;;;5036778;28;20269;-60
2022/11/15 04:06:12;;;;;;;46.72;31.25;;;9.40;99.90;;;;;;5052773;28;20052;-60
2022/11/15 04:08:38;;;;;;;47.80;30.45;;;9.40;99.90;;;;;;5045583;28;20114;-56
2022/11/15 04:11:03;;;;;;;47.45;31.80;;;9.40;99.90;;;;;;5063146;28;20040;-60
2022/11/15 04:13:29;;;;;;;44.20;31.17;;;9.40;99.90;;;;;;5037339;28;20463;-60
2022/11/15 04:15:54;;;;;;;41.85;30.10;;;9.50;99.90;;;;;;5063123;28;20032;-60
2022/11/15 04:18:20;;;;;;;38.65;28.25;;;9.50;99.90;;;;;;5053816;28;20048;-60
2022/11/15 04:26:20;;;;;;;41.63;28.08;;;9.50;99.90;;;;;;5054470;28;20072;-59
2022/11/15 04:31:30;;;;;;;46.10;29.73;;;9.70;99.90;;;;;;5064686;28;20041;-59
2022/11/15 04:33:57;;;;;;;45.00;29.10;;;9.70;99.90;;;;;;5060679;28;20062;-61
2022/11/15 04:39:07;;;;;;;39.90;26.80;;;9.70;99.90;;;;;;5054199;28;20045;-61
2022/11/15 04:41:33;;;;;;;44.35;27.90;;;9.80;99.90;;;;;;5067994;28;20398;-60
2022/11/15 04:43:58;;;;;;;39.88;26.02;;;9.80;99.90;;;;;;5065784;28;20036;-60
2022/11/15 04:46:25;;;;;;;42.85;28.50;;;9.80;99.90;;;;;;5057102;28;20037;-60
2022/11/15 04:48:51;;;;;;;35.60;25.90;;;9.90;99.90;;;;;;5068657;28;20474;-60
2022/11/15 04:51:17;;;;;;;36.38;26.33;;;9.90;99.90;;;;;;5063370;28;20152;-60
2022/11/15 04:53:43;;;;;;;35.80;24.13;;;9.90;99.90;;;;;;5062733;28;20130;-60
2022/11/15 04:56:08;;;;;;;37.42;25.08;;;9.90;99.90;;;;;;5053724;28;20397;-59
2022/11/15 04:58:35;;;;;;;33.97;24.55;;;10.00;99.90;;;;;;5063479;28;20036;-60
2022/11/15 05:01:14;;;;;;;36.58;24.55;;;10.00;99.90;;;;;;5065493;28;20052;-58
2022/11/15 05:06:27;;;;;;;32.25;22.95;;;10.10;99.90;;;;;;5060731;28;20048;-58
2022/11/15 05:08:53;;;;;;;32.08;24.27;;;10.10;99.90;;;;;;5052473;28;20440;-60
2022/11/15 05:11:20;;;;;;;32.53;24.00;;;10.10;99.90;;;;;;5054072;28;20056;-58
2022/11/15 05:13:46;;;;;;;29.77;23.63;;;10.20;99.90;;;;;;5057588;28;20052;-60
2022/11/15 05:16:12;;;;;;;31.50;24.15;;;10.20;99.90;;;;;;5059869;28;20112;-60
2022/11/15 05:18:40;;;;;;;27.92;22.52;;;10.20;99.90;;;;;;5057944;28;20060;-60
2022/11/15 05:21:14;;;;;;;30.70;22.48;;;10.30;99.90;;;;;;5056150;28;20128;-60
2022/11/15 05:23:40;;;;;;;26.83;21.75;;;10.20;99.90;;;;;;5063222;28;20100;-60
2022/11/15 05:26:07;;;;;;;28.60;21.73;;;10.30;99.90;;;;;;5065603;28;20029;-60
2022/11/15 05:28:33;;;;;;;29.05;21.63;;;10.30;99.90;;;;;;5057855;28;20087;-60
2022/11/15 05:31:03;;;;;;;30.13;22.50;;;10.40;99.90;;;;;;5055925;28;20394;-60
2022/11/15 05:33:30;;;;;;;27.20;21.55;;;10.40;99.90;;;;;;5056564;28;20037;-60
2022/11/15 05:36:10;;;;;;;28.42;22.60;;;10.40;99.90;;;;;;5058189;28;20040;-61
2022/11/15 05:38:36;;;;;;;29.90;21.42;;;10.50;99.90;;;;;;5062687;28;20067;-59
2022/11/15 05:41:03;;;;;;;28.75;21.75;;;10.50;99.90;;;;;;5046842;28;20048;-60
2022/11/15 05:43:32;;;;;;;25.85;21.08;;;10.50;99.90;;;;;;5066263;28;20032;-57
2022/11/15 05:45:59;;;;;;;29.15;21.95;;;10.50;99.90;;;;;;5061995;28;20051;-58
2022/11/15 05:48:25;;;;;;;29.15;21.67;;;10.60;99.90;;;;;;5064993;28;20109;-58
2022/11/15 05:50:51;;;;;;;27.23;21.63;;;10.60;99.90;;;;;;5066060;28;20510;-59
2022/11/15 05:53:21;;;;;;;29.63;20.67;;;10.60;99.90;;;;;;5064103;28;20770;-58
2022/11/15 05:55:48;;;;;;;27.15;20.98;;;10.60;99.90;;;;;;5066964;28;20461;-58
2022/11/15 05:58:14;;;;;;;27.42;21.15;;;10.70;99.90;;;;;;5060781;28;20107;-59
2022/11/15 06:00:40;;;;;;;28.85;20.90;;;10.70;99.90;;;;;;5067441;28;20083;-59
2022/11/15 06:03:06;;;;;;;25.77;20.40;;;10.70;99.90;;;;;;5062606;28;20371;-59
2022/11/15 06:05:31;;;;;;;29.92;21.92;;;10.80;99.90;;;;;;5064977;28;20129;-58
2022/11/15 06:07:58;;;;;;;27.90;20.27;;;10.80;99.90;;;;;;5065678;28;20771;-60
2022/11/15 06:10:24;;;;;;;24.05;20.38;;;10.80;99.90;;;;;;5054770;28;20044;-59
2022/11/15 06:13:01;;;;;;;24.80;20.45;;;10.80;99.90;;;;;;5053009;28;20059;-58
2022/11/15 06:15:27;;;;;;;25.70;19.67;;;10.80;99.90;;;;;;5053217;28;20515;-60
2022/11/15 06:17:57;;;;;;;28.38;20.35;;;10.80;99.90;;;;;;5053360;28;20044;-60
2022/11/15 06:20:24;;;;;;;26.88;19.83;;;10.80;99.90;;;;;;5055479;28;20049;-60
2022/11/15 06:22:49;;;;;;;27.23;20.50;;;10.90;99.90;;;;;;5054440;28;20091;-58
2022/11/15 06:25:15;;;;;;;28.13;20.60;;;10.90;99.90;;;;;;5054862;28;20132;-59
2022/11/15 06:27:40;;;;;;;29.63;19.80;;;10.90;99.90;;;;;;5055452;28;20068;-60
2022/11/15 06:30:07;;;;;;;27.33;20.50;;;10.90;99.90;;;;;;5059660;28;20037;-60
2022/11/15 06:32:32;;;;;;;24.02;19.73;;;11.00;99.90;;;;;;5054537;28;20394;-58
2022/11/15 06:34:58;;;;;;;26.00;20.30;;;11.00;99.90;;;;;;5053963;28;20040;-58
2022/11/15 06:37:23;;;;;;;26.63;20.08;;;11.00;99.90;;;;;;5057944;28;20032;-61
2022/11/15 06:39:49;;;;;;;25.08;19.27;;;11.00;99.90;;;;;;5039889;28;20473;-60
2022/11/15 06:42:14;;;;;;;27.73;20.17;;;11.10;99.90;;;;;;5059653;28;20043;-60
2022/11/15 06:44:40;;;;;;;26.67;20.15;;;11.10;99.90;;;;;;5061078;28;20052;-61
2022/11/15 06:47:06;;;;;;;23.77;19.27;;;11.10;99.90;;;;;;5059695;28;20120;-61
2022/11/15 06:49:31;;;;;;;21.98;18.77;;;11.10;99.90;;;;;;5055987;28;20164;-60
2022/11/15 06:51:57;;;;;;;22.98;19.50;;;11.10;99.90;;;;;;5059108;28;20576;-59
2022/11/15 06:54:22;;;;;;;27.05;19.05;;;11.20;99.90;;;;;;5054382;28;20170;-59
2022/11/15 06:56:48;;;;;;;23.95;18.40;;;11.10;99.90;;;;;;5046645;28;20040;-59
2022/11/15 06:59:13;;;;;;;21.25;18.42;;;11.10;99.90;;;;;;5052841;28;20466;-60
2022/11/15 07:01:39;;;;;;;22.58;18.95;;;11.20;99.90;;;;;;5054720;28;20201;-60
2022/11/15 07:04:04;;;;;;;21.73;18.80;;;11.20;99.90;;;;;;5035351;28;20041;-61
2022/11/15 07:06:30;;;;;;;22.48;18.42;;;11.20;99.90;;;;;;5053351;28;20171;-60
2022/11/15 07:08:56;;;;;;;22.45;18.92;;;11.20;99.90;;;;;;5050136;28;20037;-60
2022/11/15 07:11:21;;;;;;;21.67;18.40;;;11.20;99.90;;;;;;5052040;28;20079;-60
2022/11/15 07:13:47;;;;;;;24.35;19.17;;;11.20;99.90;;;;;;5055732;28;20044;-59
2022/11/15 07:16:12;;;;;;;21.67;17.90;;;11.30;99.90;;;;;;5030726;28;20399;-59
2022/11/15 07:18:39;;;;;;;21.30;18.10;;;11.30;99.90;;;;;;5054324;28;20505;-61
2022/11/15 07:21:08;;;;;;;23.83;18.05;;;11.30;99.90;;;;;;5050534;28;20051;-60
2022/11/15 07:23:37;;;;;;;20.20;18.00;;;11.30;99.90;;;;;;5067643;28;20043;-60
2022/11/15 07:26:03;;;;;;;23.63;18.83;;;11.30;99.90;;;;;;5056410;28;20045;-60
2022/11/15 07:28:28;;;;;;;23.40;18.02;;;11.30;99.90;;;;;;5055788;28;20041;-59
2022/11/15 07:30:54;;;;;;;23.08;18.90;;;11.30;99.90;;;;;;5047683;28;20718;-59
2022/11/15 07:33:20;;;;;;;22.63;18.92;;;11.40;99.90;;;;;;5045075;28;20072;-61
2022/11/15 07:35:49;;;;;;;22.90;19.27;;;11.40;99.90;;;;;;5054916;28;20355;-60
2022/11/15 07:38:19;;;;;;;21.02;18.75;;;11.40;99.90;;;;;;5049188;28;20063;-57
2022/11/15 07:40:46;;;;;;;22.13;19.38;;;11.40;99.90;;;;;;5056736;28;20032;-58
2022/11/15 07:43:11;;;;;;;21.67;18.95;;;11.40;99.90;;;;;;5020388;28;20045;-60
2022/11/15 07:45:45;;;;;;;22.83;19.33;;;11.40;99.90;;;;;;5053747;28;20051;-60
2022/11/15 07:48:10;;;;;;;24.75;19.67;;;11.50;99.90;;;;;;5057106;28;20048;-59
2022/11/15 07:50:36;;;;;;;24.30;20.35;;;11.50;99.90;;;;;;5063921;28;20040;-59
2022/11/15 07:53:02;;;;;;;24.20;19.80;;;11.40;99.90;;;;;;5066887;28;20055;-61
2022/11/15 07:55:29;;;;;;;23.98;19.88;;;11.50;99.90;;;;;;5063547;28;20131;-61
2022/11/15 07:58:09;;;;;;;22.50;19.80;;;11.50;99.90;;;;;;5040235;28;20402;-59
2022/11/15 08:00:35;;;;;;;22.20;19.67;;;11.50;99.90;;;;;;5042281;28;20036;-61
2022/11/15 08:03:12;;;;;;;22.40;20.10;;;11.60;99.90;;;;;;5065736;28;20082;-61
2022/11/15 08:05:39;;;;;;;22.88;20.30;;;11.60;99.90;;;;;;5046179;28;20049;-57
2022/11/15 08:08:06;;;;;;;22.25;19.85;;;11.60;99.90;;;;;;5060364;28;21426;-57
2022/11/15 08:10:32;;;;;;;26.00;19.63;;;11.60;99.90;;;;;;5062404;28;20048;-59
2022/11/15 08:13:05;;;;;;;25.10;20.25;;;11.50;99.90;;;;;;5043023;28;20044;-59
2022/11/15 08:15:31;;;;;;;22.13;19.88;;;11.50;99.90;;;;;;5062589;28;20041;-60
2022/11/15 08:17:59;;;;;;;22.67;18.70;;;11.50;99.90;;;;;;5062707;28;20410;-59
2022/11/15 08:20:29;;;;;;;20.75;18.55;;;11.50;99.90;;;;;;5062231;28;20390;-58
2022/11/15 08:22:58;;;;;;;19.85;17.90;;;11.60;99.90;;;;;;5063800;28;20037;-60
2022/11/15 08:25:26;;;;;;;20.30;18.25;;;11.60;99.90;;;;;;5032112;28;20063;-60
2022/11/15 08:27:57;;;;;;;24.30;18.60;;;11.60;99.90;;;;;;5063620;28;20501;-60
2022/11/15 08:30:23;;;;;;;23.23;18.10;;;11.60;99.90;;;;;;5058243;28;20045;-61
2022/11/15 08:32:50;;;;;;;20.85;17.95;;;11.60;99.90;;;;;;5061239;28;20056;-60
2022/11/15 08:35:16;;;;;;;20.08;17.98;;;11.60;99.90;;;;;;5061917;28;20033;-60
2022/11/15 08:37:41;;;;;;;19.00;17.05;;;11.70;99.90;;;;;;5065523;28;20044;-59
2022/11/15 08:40:08;;;;;;;18.55;16.40;;;11.60;99.90;;;;;;5063260;28;20367;-60
2022/11/15 08:42:33;;;;;;;19.02;17.13;;;11.70;99.90;;;;;;5054031;28;20041;-61
2022/11/15 08:44:59;;;;;;;17.55;15.85;;;11.70;99.90;;;;;;5055329;28;20033;-60
2022/11/15 08:47:25;;;;;;;18.23;16.25;;;11.70;99.90;;;;;;5062572;28;20045;-60
2022/11/15 08:49:50;;;;;;;17.17;15.38;;;11.70;99.90;;;;;;5060847;28;20045;-60
2022/11/15 08:52:16;;;;;;;16.83;15.15;;;11.80;99.90;;;;;;5068941;28;20127;-58
2022/11/15 08:54:42;;;;;;;17.73;16.15;;;11.80;99.90;;;;;;5057209;28;20045;-59
2022/11/15 08:57:09;;;;;;;17.30;15.60;;;11.80;99.90;;;;;;5061445;28;20045;-61
2022/11/15 08:59:35;;;;;;;16.93;15.20;;;11.80;99.90;;;;;;5037940;28;20056;-61
2022/11/15 09:02:01;;;;;;;17.10;15.32;;;11.80;99.90;;;;;;5051532;28;20834;-62
2022/11/15 09:04:27;;;;;;;16.55;14.98;;;11.90;99.90;;;;;;5068219;28;20044;-61
2022/11/15 09:06:52;;;;;;;17.40;15.60;;;11.80;99.90;;;;;;5064376;28;20100;-61
2022/11/15 09:09:18;;;;;;;18.52;16.80;;;11.90;99.90;;;;;;5055795;28;20037;-60
2022/11/15 09:11:44;;;;;;;17.90;16.10;;;11.90;99.90;;;;;;5062201;28;20032;-61
2022/11/15 09:14:12;;;;;;;18.00;16.27;;;11.90;99.90;;;;;;5069734;28;20044;-60
2022/11/15 09:16:38;;;;;;;20.55;17.50;;;11.90;99.90;;;;;;5059792;28;20048;-61
2022/11/15 09:19:03;;;;;;;18.92;17.02;;;11.80;99.90;;;;;;5056246;28;20417;-61
2022/11/15 09:21:30;;;;;;;19.95;17.95;;;11.80;99.90;;;;;;5057834;28;20049;-60
2022/11/15 09:23:56;;;;;;;19.88;17.88;;;11.80;99.90;;;;;;5069221;28;20087;-60
2022/11/15 09:26:22;;;;;;;20.75;18.55;;;11.80;99.90;;;;;;5060355;28;20164;-61
2022/11/15 09:28:48;;;;;;;21.52;19.40;;;11.90;99.90;;;;;;5056691;28;20045;-60
2022/11/15 09:31:13;;;;;;;22.02;19.83;;;11.80;99.90;;;;;;5057260;28;20051;-60
2022/11/15 09:33:39;;;;;;;22.27;20.00;;;11.90;99.90;;;;;;5054402;28;20394;-60
2022/11/15 09:36:07;;;;;;;23.17;20.55;;;11.80;99.90;;;;;;5057350;28;20037;-60
2022/11/15 09:38:33;;;;;;;22.90;20.50;;;11.80;99.90;;;;;;5063672;28;20037;-59
2022/11/15 09:41:14;;;;;;;24.83;22.23;;;11.80;99.90;;;;;;5063384;28;20051;-60
2022/11/15 09:44:06;;;;;;;24.15;21.83;;;11.90;99.90;;;;;;5059756;28;20065;-61
2022/11/15 09:46:51;;;;;;;25.20;22.63;;;11.80;99.90;;;;;;5061833;28;20406;-61
2022/11/15 09:49:17;;;;;;;25.40;22.73;;;11.80;99.90;;;;;;5054823;28;20437;-60
2022/11/15 09:51:50;;;;;;;23.20;20.98;;;11.80;99.90;;;;;;5058632;28;20501;-61
2022/11/15 09:54:43;;;;;;;23.85;21.63;;;11.80;99.90;;;;;;5057900;28;20044;-62
2022/11/15 09:57:08;;;;;;;23.20;20.92;;;11.80;99.90;;;;;;5056846;28;20755;-61
2022/11/15 09:59:59;;;;;;;23.40;21.13;;;11.80;99.90;;;;;;5056083;28;20036;-62
2022/11/15 10:02:37;;;;;;;21.80;19.67;;;11.80;99.90;;;;;;5054811;28;20553;-60
2022/11/15 10:05:03;;;;;;;22.67;20.45;;;11.90;99.90;;;;;;5060473;28;20118;-60
2022/11/15 10:08:21;;;;;;;21.30;19.23;;;11.80;99.90;;;;;;5056240;28;20091;-61
2022/11/15 10:10:52;;;;;;;;;;;11.80;99.90;;;;;;5061888;28;20044;-61
2022/11/15 10:13:25;;;;;;;18.05;16.25;;;11.90;99.90;;;;;;5055642;28;20309;-61
2022/11/15 10:15:55;;;;;;;17.13;15.38;;;12.00;99.90;;;;;;5064348;28;20052;-61
2022/11/15 10:18:34;;;;;;;17.33;14.95;;;12.10;99.90;;;;;;5054344;28;20498;-61
2022/11/15 10:21:13;;;;;;;13.93;12.52;;;12.20;99.90;;;;;;5055617;28;20036;-61
2022/11/15 10:23:39;;;;;;;14.93;12.90;;;12.30;99.90;;;;;;5059751;28;20148;-59
2022/11/15 10:26:10;;;;;;;12.93;11.73;;;12.30;99.90;;;;;;5054806;28;20401;-59
2022/11/15 10:28:36;;;;;;;14.70;11.45;;;12.40;99.90;;;;;;5055235;28;20051;-61
2022/11/15 10:31:02;;;;;;;13.75;11.85;;;12.30;99.90;;;;;;5055347;28;20041;-61
2022/11/15 10:33:35;;;;;;;13.07;11.80;;;12.30;99.90;;;;;;5059162;28;20098;-61
2022/11/15 10:36:18;;;;;;;13.50;12.10;;;12.40;99.90;;;;;;5054803;28;20508;-61
2022/11/15 10:38:49;;;;;;;12.27;10.98;;;12.30;99.90;;;;;;5073458;28;20072;-59
2022/11/15 10:41:29;;;;;;;12.27;10.80;;;12.30;99.90;;;;;;5063783;28;20041;-61
2022/11/15 10:44:11;;;;;;;11.82;9.98;;;12.30;99.90;;;;;;5059605;28;20040;-61
2022/11/15 10:46:39;;;;;;;12.02;10.75;;;12.40;99.90;;;;;;5045016;28;20536;-60
2022/11/15 10:49:20;;;;;;;11.48;9.57;;;12.50;99.90;;;;;;5057229;28;20040;-60
2022/11/15 10:51:47;;;;;;;10.23;9.23;;;12.50;99.90;;;;;;5056762;28;20098;-59
2022/11/15 10:54:20;;;;;;;11.20;10.00;;;12.60;99.90;;;;;;5071357;28;20052;-61
2022/11/15 10:56:50;;;;;;;10.93;9.80;;;12.80;99.90;;;;;;5057379;28;20045;-60
2022/11/15 10:59:30;;;;;;;10.85;9.02;;;12.80;99.90;;;;;;5068585;28;20119;-60
2022/11/15 11:01:56;;;;;;;9.20;7.78;;;12.80;99.90;;;;;;5057247;28;20131;-61
2022/11/15 11:04:22;;;;;;;7.93;7.13;;;12.70;99.90;;;;;;5054050;28;20124;-61
2022/11/15 11:06:51;;;;;;;8.20;7.03;;;12.70;99.90;;;;;;5054616;28;20045;-59
2022/11/15 11:09:38;;;;;;;8.90;6.82;;;12.70;99.90;;;;;;5052440;28;20367;-61
2022/11/15 11:12:06;;;;;;;8.38;6.80;;;12.80;99.90;;;;;;5064225;28;20044;-62
2022/11/15 11:14:35;;;;;;;;;;;12.80;99.90;;;;;;5056444;28;20486;-61
2022/11/15 11:17:18;;;;;;;7.50;6.60;;;12.80;99.90;;;;;;5045455;28;19982;-61
2022/11/15 11:19:47;;;;;;;7.22;6.05;;;12.80;99.90;;;;;;5053507;28;20128;-61
2022/11/15 11:22:34;;;;;;;8.10;6.28;;;12.90;99.90;;;;;;5059655;28;20053;-61
2022/11/15 11:25:07;;;;;;;9.50;6.00;;;12.90;99.90;;;;;;5064740;28;20044;-61
2022/11/15 11:27:42;;;;;;;7.25;5.68;;;13.00;99.90;;;;;;5056027;28;20036;-62
2022/11/15 11:30:16;;;;;;;7.82;5.38;;;13.00;99.90;;;;;;5054066;28;20480;-61
2022/11/15 11:33:03;;;;;;;8.70;5.15;;;13.00;99.90;;;;;;5057678;28;20390;-61
2022/11/15 11:36:05;;;;;;;6.95;5.28;;;13.00;99.90;;;;;;5052646;28;20398;-60
2022/11/15 11:38:57;;;;;;;7.35;5.03;;;13.00;99.90;;;;;;5053022;28;20056;-60
2022/11/15 11:41:47;;;;;;;8.57;5.00;;;13.00;99.90;;;;;;5058654;28;20048;-59
2022/11/15 11:44:24;;;;;;;6.22;4.80;;;12.90;99.90;;;;;;5056487;28;20040;-61
2022/11/15 11:47:10;;;;;;;5.22;4.28;;;12.90;99.90;;;;;;5058670;28;20441;-60
2022/11/15 11:50:00;;;;;;;6.22;3.90;;;13.00;99.90;;;;;;5053422;28;20052;-59
2022/11/15 11:52:34;;;;;;;6.13;3.72;;;12.90;99.90;;;;;;5060969;28;20083;-61
2022/11/15 11:55:11;;;;;;;5.82;3.63;;;12.90;99.90;;;;;;5054668;28;20120;-60
2022/11/15 11:57:51;;;;;;;3.90;3.35;;;13.00;99.90;;;;;;5058630;28;20223;-61
2022/11/15 12:00:24;;;;;;;6.70;3.63;;;13.00;99.90;;;;;;5054061;28;20044;-61
2022/11/15 12:02:59;;;;;;;4.63;3.30;;;13.00;99.90;;;;;;5059089;28;20037;-61
2022/11/15 12:05:37;;;;;;;6.85;3.70;;;13.10;99.90;;;;;;5055154;28;20041;-61
2022/11/15 12:08:32;;;;;;;9.15;3.78;;;13.00;99.90;;;;;;5048716;28;20049;-60
2022/11/15 12:11:15;;;;;;;7.10;3.30;;;13.00;99.90;;;;;;5054803;28;20040;-59
2022/11/15 12:13:43;;;;;;;5.07;3.13;;;13.10;99.90;;;;;;5055688;28;20037;-60
2022/11/15 12:16:23;;;;;;;3.70;3.30;;;13.20;99.90;;;;;;5062179;28;20385;-59
2022/11/15 12:18:52;;;;;;;3.75;3.08;;;13.30;99.90;;;;;;5055126;28;20056;-60
2022/11/15 12:21:39;;;;;;;4.70;3.58;;;13.40;99.90;;;;;;5048640;28;20048;-59
2022/11/15 12:24:16;;;;;;;6.32;3.08;;;13.40;99.90;;;;;;5057181;28;20541;-59
2022/11/15 12:26:52;;;;;;;3.78;2.90;;;13.50;99.90;;;;;;5052781;28;20150;-62
2022/11/15 12:29:38;;;;;;;6.82;3.47;;;13.60;99.90;;;;;;5055734;28;20145;-62
2022/11/15 12:32:14;;;;;;;3.42;2.65;;;13.60;99.90;;;;;;5057289;28;20116;-62
2022/11/15 12:34:44;;;;;;;4.78;2.95;;;13.60;99.90;;;;;;5058959;28;20044;-61
2022/11/15 12:37:35;;;;;;;4.95;2.58;;;13.60;99.90;;;;;;5061845;28;20047;-62
2022/11/15 12:40:18;;;;;;;4.72;3.30;;;13.50;99.90;;;;;;5060909;28;20036;-60
2022/11/15 12:43:05;;;;;;;7.13;2.42;;;13.60;99.90;;;;;;5057918;28;20052;-61
2022/11/15 12:45:37;;;;;;;2.92;2.47;;;13.60;99.90;;;;;;5062710;28;20068;-60
2022/11/15 12:48:18;;;;;;;5.43;2.50;;;13.50;99.90;;;;;;5055075;28;20089;-60
2022/11/15 12:50:55;;;;;;;2.78;2.30;;;13.50;99.90;;;;;;5062115;28;20461;-61
2022/11/15 12:53:24;;;;;;;4.80;2.45;;;13.40;99.90;;;;;;5072702;28;20080;-60
2022/11/15 12:56:11;;;;;;;4.57;2.30;;;13.50;99.90;;;;;;5071208;28;20040;-62
2022/11/15 12:58:52;;;;;;;4.63;2.05;;;13.50;99.90;;;;;;5056022;28;20127;-60
2022/11/15 13:01:34;;;;;;;2.33;2.10;;;13.50;99.90;;;;;;5035416;28;20063;-60
2022/11/15 13:04:18;;;;;;;2.55;1.90;;;13.50;99.90;;;;;;5052724;28;20125;-61
2022/11/15 13:06:55;;;;;;;6.07;1.90;;;13.50;99.90;;;;;;5052625;28;20076;-61
2022/11/15 13:09:33;;;;;;;4.97;1.90;;;13.50;99.90;;;;;;5018369;28;20114;-61
2022/11/15 13:12:01;;;;;;;;;;;13.40;99.90;;;;;;5036520;28;20053;-62